Time;durP1;ratioP1;P1;durP2;ratioP2;P2;SDS_P1;SDS_P2;PMS_P1;PMS_P2;Temp;Humidity;BMP_temperature;BMP_pressure;BME280_temperature;BME280_humidity;BME280_pressure;Samples;Min_cycle;Max_cycle;Signal;HPM_P1;HPM_P2
2023/09/23 00:00:14;;;;;;;10.07;4.85;;;;;;;;;;5061128;28;20049;-63
2023/09/23 00:02:43;;;;;;;11.88;5.55;;;;;;;;;;5060694;28;20043;-60
2023/09/23 00:05:12;;;;;;;9.27;5.20;;;;;;;;;;5061406;28;20400;-56
2023/09/23 00:07:39;;;;;;;12.27;5.30;;;;;;;;;;5061320;28;20042;-61
2023/09/23 00:10:08;;;;;;;8.93;4.82;;;;;;;;;;5060141;28;20048;-61
2023/09/23 00:12:38;;;;;;;10.75;5.47;;;;;;;;;;5060202;28;20123;-61
2023/09/23 00:15:05;;;;;;;9.32;5.07;;;;;;;;;;5050386;28;20224;-62
2023/09/23 00:17:33;;;;;;;10.18;5.10;;;;;;;;;;5061106;28;20035;-63
2023/09/23 00:20:01;;;;;;;8.38;4.90;;;;;;;;;;5052110;28;20059;-62
2023/09/23 00:22:47;;;;;;;10.60;4.82;;;;;;;;;;5016502;28;20052;-63
2023/09/23 00:25:18;;;;;;;12.07;5.45;;;;;;;;;;5000601;28;20056;-64
2023/09/23 00:27:49;;;;;;;12.93;4.93;;;;;;;;;;5016888;28;20619;-61
2023/09/23 00:30:15;;;;;;;8.98;4.82;;;;;;;;;;5018810;28;21431;-61
2023/09/23 00:32:43;;;;;;;13.50;5.18;;;;;;;;;;5022572;28;20045;-63
2023/09/23 00:35:12;;;;;;;11.85;5.32;;;;;;;;;;5024282;28;20155;-61
2023/09/23 00:37:43;;;;;;;9.95;5.22;;;;;;;;;;5022457;28;20041;-63
2023/09/23 00:40:17;;;;;;;9.75;5.72;;;;;;;;;;5022367;28;20082;-62
2023/09/23 00:42:47;;;;;;;10.13;5.28;;;;;;;;;;5021243;28;20090;-60
2023/09/23 00:45:15;;;;;;;12.60;5.95;;;;;;;;;;5021976;28;20074;-61
2023/09/23 00:47:46;;;;;;;10.35;5.47;;;;;;;;;;5020631;28;20037;-60
2023/09/23 00:50:19;;;;;;;11.70;4.93;;;;;;;;;;5021054;28;20386;-60
2023/09/23 00:52:53;;;;;;;13.57;5.13;;;;;;;;;;5006011;28;20045;-58
2023/09/23 00:55:20;;;;;;;13.10;5.40;;;;;;;;;;5021959;28;20048;-60
2023/09/23 00:57:52;;;;;;;12.23;5.38;;;;;;;;;;5021272;28;20061;-63
2023/09/23 01:00:27;;;;;;;14.55;5.70;;;;;;;;;;5046457;28;20040;-59
2023/09/23 01:02:58;;;;;;;10.07;5.20;;;;;;;;;;5047149;28;20039;-60
2023/09/23 01:05:28;;;;;;;9.75;5.60;;;;;;;;;;5065971;28;20040;-60
2023/09/23 01:07:59;;;;;;;13.27;5.78;;;;;;;;;;5067907;28;20668;-60
2023/09/23 01:10:28;;;;;;;11.15;5.47;;;;;;;;;;5066860;28;20447;-63
2023/09/23 01:12:54;;;;;;;9.93;5.22;;;;;;;;;;5065608;28;20036;-61
2023/09/23 01:15:25;;;;;;;11.82;5.57;;;;;;;;;;5066889;28;20040;-62
2023/09/23 01:17:53;;;;;;;12.43;5.60;;;;;;;;;;5051032;28;20071;-62
2023/09/23 01:20:21;;;;;;;17.67;5.47;;;;;;;;;;5066871;28;20435;-63
2023/09/23 01:22:48;;;;;;;13.65;5.95;;;;;;;;;;5064444;28;20480;-61
2023/09/23 01:25:16;;;;;;;11.65;5.50;;;;;;;;;;5067345;28;20040;-58
2023/09/23 01:27:43;;;;;;;12.43;5.60;;;;;;;;;;5067808;28;20032;-64
2023/09/23 01:30:12;;;;;;;11.00;5.53;;;;;;;;;;5067120;28;20174;-62
2023/09/23 01:32:49;;;;;;;14.93;6.07;;;;;;;;;;5067737;28;20051;-62
2023/09/23 01:35:22;;;;;;;12.10;5.82;;;;;;;;;;5067716;28;20036;-60
2023/09/23 01:37:50;;;;;;;11.02;5.47;;;;;;;;;;5066638;28;20700;-59
2023/09/23 01:40:17;;;;;;;12.43;5.63;;;;;;;;;;5066765;28;20035;-62
2023/09/23 01:42:44;;;;;;;14.15;5.47;;;;;;;;;;5063892;28;20662;-63
2023/09/23 01:45:13;;;;;;;13.95;5.95;;;;;;;;;;5064409;28;20044;-61
2023/09/23 01:47:44;;;;;;;14.50;6.22;;;;;;;;;;5043775;28;20036;-63
2023/09/23 01:50:11;;;;;;;10.52;5.65;;;;;;;;;;5064445;28;20217;-61
2023/09/23 01:52:40;;;;;;;14.88;5.90;;;;;;;;;;5063025;28;20029;-65
2023/09/23 01:55:10;;;;;;;12.77;6.25;;;;;;;;;;5063692;28;20098;-62
2023/09/23 01:57:37;;;;;;;10.75;5.90;;;;;;;;;;5063082;28;20028;-62
2023/09/23 02:00:07;;;;;;;10.43;6.18;;;;;;;;;;5062962;28;20052;-60
2023/09/23 02:02:34;;;;;;;11.07;6.05;;;;;;;;;;5062641;28;20036;-61
2023/09/23 02:05:01;;;;;;;14.02;5.88;;;;;;;;;;5044888;28;20055;-63
2023/09/23 02:07:27;;;;;;;13.73;5.63;;;;;;;;;;5062462;28;20044;-64
2023/09/23 02:09:54;;;;;;;11.25;5.47;;;;;;;;;;5063110;28;20179;-62
2023/09/23 02:12:21;;;;;;;14.05;6.00;;;;;;;;;;5059328;28;20051;-62
2023/09/23 02:14:47;;;;;;;11.13;5.65;;;;;;;;;;5062263;28;20138;-61
2023/09/23 02:17:15;;;;;;;14.43;6.13;;;;;;;;;;5064348;28;20392;-62
2023/09/23 02:19:42;;;;;;;19.20;6.45;;;;;;;;;;5063418;28;20045;-61
2023/09/23 02:22:10;;;;;;;11.55;5.85;;;;;;;;;;5044972;28;20040;-61
2023/09/23 02:24:36;;;;;;;10.30;5.78;;;;;;;;;;5052399;28;20031;-63
2023/09/23 02:27:03;;;;;;;12.40;5.95;;;;;;;;;;5064374;28;20072;-61
2023/09/23 02:29:31;;;;;;;16.83;6.20;;;;;;;;;;5044437;28;20044;-61
2023/09/23 02:31:57;;;;;;;16.17;6.80;;;;;;;;;;5064011;28;20448;-61
2023/09/23 02:34:24;;;;;;;11.95;6.65;;;;;;;;;;5061929;28;20040;-64
2023/09/23 02:36:51;;;;;;;13.60;6.13;;;;;;;;;;5043483;28;20115;-61
2023/09/23 02:39:21;;;;;;;16.52;7.00;;;;;;;;;;5065188;28;20057;-61
2023/09/23 02:41:49;;;;;;;11.05;6.35;;;;;;;;;;5061923;28;20051;-62
2023/09/23 02:44:18;;;;;;;14.00;6.50;;;;;;;;;;5062313;28;20090;-61
2023/09/23 02:46:46;;;;;;;14.30;6.28;;;;;;;;;;5064441;28;20127;-61
2023/09/23 02:49:13;;;;;;;14.55;7.35;;;;;;;;;;5065698;28;20076;-62
2023/09/23 02:51:41;;;;;;;19.55;7.65;;;;;;;;;;5061295;28;20047;-60
2023/09/23 02:54:09;;;;;;;15.85;7.35;;;;;;;;;;5062883;28;20414;-62
2023/09/23 02:56:36;;;;;;;11.38;6.60;;;;;;;;;;5061092;28;21423;-63
2023/09/23 02:59:13;;;;;;;13.45;6.95;;;;;;;;;;5063941;28;20198;-62
2023/09/23 03:01:48;;;;;;;17.27;7.97;;;;;;;;;;5063210;28;20056;-60
2023/09/23 03:04:24;;;;;;;17.88;8.07;;;;;;;;;;5063876;28;20492;-61
2023/09/23 03:06:54;;;;;;;12.50;7.22;;;;;;;;;;5065708;28;20041;-61
2023/09/23 03:09:23;;;;;;;14.30;7.00;;;;;;;;;;5063558;28;20052;-61
2023/09/23 03:11:55;;;;;;;14.73;6.72;;;;;;;;;;5063567;28;20044;-60
2023/09/23 03:14:23;;;;;;;16.98;7.35;;;;;;;;;;5066049;28;20062;-63
2023/09/23 03:16:54;;;;;;;18.15;7.20;;;;;;;;;;5064168;28;20072;-62
2023/09/23 03:19:27;;;;;;;12.85;6.18;;;;;;;;;;5063664;28;20040;-63
2023/09/23 03:21:58;;;;;;;20.27;7.88;;;;;;;;;;5064652;28;20384;-63
2023/09/23 03:24:31;;;;;;;15.13;7.18;;;;;;;;;;5063011;28;20036;-64
2023/09/23 03:26:58;;;;;;;14.50;6.53;;;;;;;;;;5062874;28;20036;-63
2023/09/23 03:29:30;;;;;;;17.10;6.65;;;;;;;;;;5063410;28;20066;-61
2023/09/23 03:31:57;;;;;;;16.30;8.00;;;;;;;;;;5062633;28;20036;-60
2023/09/23 03:34:24;;;;;;;16.95;7.15;;;;;;;;;;5060955;28;20040;-62
2023/09/23 03:36:53;;;;;;;22.85;7.25;;;;;;;;;;5064274;28;20052;-62
2023/09/23 03:39:19;;;;;;;12.57;7.00;;;;;;;;;;5064040;28;20039;-62
2023/09/23 03:41:49;;;;;;;13.52;6.95;;;;;;;;;;5062534;28;20032;-62
2023/09/23 03:44:16;;;;;;;14.05;6.97;;;;;;;;;;5061646;28;20050;-60
2023/09/23 03:46:52;;;;;;;15.05;6.50;;;;;;;;;;5061406;28;20106;-60
2023/09/23 03:49:18;;;;;;;15.35;6.45;;;;;;;;;;5063067;28;20182;-62
2023/09/23 03:51:45;;;;;;;13.77;6.43;;;;;;;;;;5060849;28;20135;-61
2023/09/23 03:54:13;;;;;;;12.25;6.07;;;;;;;;;;5060322;28;20051;-61
2023/09/23 03:56:42;;;;;;;12.73;6.57;;;;;;;;;;5060652;28;20044;-62
2023/09/23 03:59:09;;;;;;;13.20;5.80;;;;;;;;;;5061871;28;20044;-64
2023/09/23 04:01:39;;;;;;;13.40;6.25;;;;;;;;;;5059150;28;20159;-61
2023/09/23 04:04:07;;;;;;;18.88;6.28;;;;;;;;;;5060515;28;20546;-60
2023/09/23 04:06:34;;;;;;;12.88;5.88;;;;;;;;;;5059788;28;20143;-61
2023/09/23 04:09:00;;;;;;;11.80;6.13;;;;;;;;;;5059991;28;20528;-62
2023/09/23 04:11:27;;;;;;;13.65;5.75;;;;;;;;;;5060862;28;20027;-61
2023/09/23 04:13:54;;;;;;;16.20;6.72;;;;;;;;;;5057892;28;20089;-61
2023/09/23 04:16:22;;;;;;;18.23;7.15;;;;;;;;;;5060766;28;20655;-64
2023/09/23 04:18:51;;;;;;;12.02;6.63;;;;;;;;;;5059438;28;20028;-64
2023/09/23 04:21:20;;;;;;;10.52;5.97;;;;;;;;;;5059030;28;20365;-64
2023/09/23 04:23:48;;;;;;;15.20;6.72;;;;;;;;;;5059381;28;20441;-63
2023/09/23 04:26:15;;;;;;;12.85;6.47;;;;;;;;;;5061356;28;20033;-63
2023/09/23 04:28:43;;;;;;;13.30;6.32;;;;;;;;;;5059433;28;20067;-61
2023/09/23 04:31:12;;;;;;;13.35;7.18;;;;;;;;;;5061455;28;20526;-61
2023/09/23 04:33:39;;;;;;;11.88;5.82;;;;;;;;;;5061076;28;20601;-63
2023/09/23 04:36:10;;;;;;;13.00;6.05;;;;;;;;;;5061612;28;20395;-62
2023/09/23 04:38:37;;;;;;;16.40;6.75;;;;;;;;;;5060352;28;20106;-63
2023/09/23 04:41:05;;;;;;;15.77;6.95;;;;;;;;;;5062546;28;20063;-62
2023/09/23 04:43:32;;;;;;;12.45;6.63;;;;;;;;;;5058711;28;20048;-63
2023/09/23 04:45:59;;;;;;;14.88;6.45;;;;;;;;;;5062227;28;20207;-63
2023/09/23 04:48:25;;;;;;;12.27;6.55;;;;;;;;;;5060581;28;20044;-62
2023/09/23 04:50:55;;;;;;;14.50;7.10;;;;;;;;;;5060681;28;20041;-62
2023/09/23 04:53:22;;;;;;;14.50;6.80;;;;;;;;;;5061813;28;20576;-64
2023/09/23 04:55:49;;;;;;;13.27;6.72;;;;;;;;;;5059645;28;20070;-63
2023/09/23 04:58:15;;;;;;;14.90;6.47;;;;;;;;;;5060640;28;20043;-64
2023/09/23 05:00:42;;;;;;;13.65;6.78;;;;;;;;;;5059231;28;20055;-65
2023/09/23 05:03:09;;;;;;;12.32;7.00;;;;;;;;;;5060703;28;20447;-62
2023/09/23 05:05:36;;;;;;;13.68;7.32;;;;;;;;;;5059969;28;20040;-64
2023/09/23 05:08:05;;;;;;;13.10;7.28;;;;;;;;;;5060694;28;20120;-64
2023/09/23 05:10:32;;;;;;;12.15;6.70;;;;;;;;;;5059285;28;20040;-64
2023/09/23 05:12:59;;;;;;;12.02;6.97;;;;;;;;;;5041849;28;20044;-65
2023/09/23 05:15:29;;;;;;;15.40;6.97;;;;;;;;;;5060078;28;20259;-63
2023/09/23 05:17:57;;;;;;;9.93;6.45;;;;;;;;;;5044222;28;20040;-60
2023/09/23 05:20:25;;;;;;;14.95;7.60;;;;;;;;;;5064346;28;20041;-63
2023/09/23 05:22:55;;;;;;;12.27;6.68;;;;;;;;;;5064487;28;20040;-64
2023/09/23 05:25:27;;;;;;;12.88;5.90;;;;;;;;;;5064657;28;20378;-61
2023/09/23 05:27:54;;;;;;;12.23;6.53;;;;;;;;;;5046664;28;20551;-61
2023/09/23 05:30:21;;;;;;;18.05;7.15;;;;;;;;;;5064540;28;20060;-61
2023/09/23 05:32:48;;;;;;;15.55;6.90;;;;;;;;;;5064383;28;20515;-62
2023/09/23 05:35:15;;;;;;;18.85;6.68;;;;;;;;;;5062787;28;20048;-61
2023/09/23 05:37:42;;;;;;;13.65;5.95;;;;;;;;;;5046205;28;21408;-62
2023/09/23 05:40:22;;;;;;;14.13;6.30;;;;;;;;;;5064461;28;20493;-60
2023/09/23 05:42:53;;;;;;;13.20;6.78;;;;;;;;;;5061616;28;20040;-59
2023/09/23 05:45:29;;;;;;;14.27;6.68;;;;;;;;;;5061631;28;20032;-60
2023/09/23 05:47:56;;;;;;;11.75;6.20;;;;;;;;;;5062380;28;20040;-62
2023/09/23 05:50:23;;;;;;;12.98;6.50;;;;;;;;;;5061577;28;20047;-59
2023/09/23 05:52:52;;;;;;;10.38;6.00;;;;;;;;;;5062103;28;20559;-60
2023/09/23 05:55:18;;;;;;;13.57;6.65;;;;;;;;;;5063125;28;20582;-60
2023/09/23 05:57:45;;;;;;;14.40;6.38;;;;;;;;;;5063161;28;20807;-63
2023/09/23 06:00:15;;;;;;;11.63;6.22;;;;;;;;;;5063349;28;20040;-63
2023/09/23 06:02:44;;;;;;;14.68;6.20;;;;;;;;;;5063296;28;20032;-62
2023/09/23 06:05:11;;;;;;;12.27;6.90;;;;;;;;;;5063179;28;20041;-62
2023/09/23 06:07:38;;;;;;;10.95;5.82;;;;;;;;;;5062849;28;20554;-60
2023/09/23 06:10:06;;;;;;;11.93;6.13;;;;;;;;;;5063178;28;20048;-60
2023/09/23 06:12:33;;;;;;;12.00;6.82;;;;;;;;;;5063615;28;20048;-62
2023/09/23 06:15:00;;;;;;;15.75;6.72;;;;;;;;;;5061773;28;20420;-60
2023/09/23 06:17:32;;;;;;;12.52;6.97;;;;;;;;;;5061234;28;20036;-62
2023/09/23 06:19:59;;;;;;;12.57;6.90;;;;;;;;;;5062557;28;20048;-59
2023/09/23 06:22:27;;;;;;;12.73;6.40;;;;;;;;;;5062217;28;20448;-59
2023/09/23 06:24:54;;;;;;;12.75;6.28;;;;;;;;;;5062189;28;20047;-60
2023/09/23 06:27:21;;;;;;;10.35;6.00;;;;;;;;;;5061695;28;20511;-62
2023/09/23 06:29:48;;;;;;;13.55;6.40;;;;;;;;;;5060871;28;21000;-61
2023/09/23 06:32:14;;;;;;;10.27;6.07;;;;;;;;;;5061983;28;20048;-62
2023/09/23 06:34:41;;;;;;;12.00;6.63;;;;;;;;;;5060738;28;20061;-63
2023/09/23 06:37:07;;;;;;;11.35;5.85;;;;;;;;;;5061895;28;20131;-63
2023/09/23 06:39:34;;;;;;;11.43;5.88;;;;;;;;;;5059986;28;20040;-62
2023/09/23 06:42:00;;;;;;;11.80;6.07;;;;;;;;;;5060119;28;20049;-63
2023/09/23 06:44:27;;;;;;;12.60;5.38;;;;;;;;;;5046262;28;20079;-61
2023/09/23 06:46:54;;;;;;;12.23;6.35;;;;;;;;;;5062217;28;20039;-61
2023/09/23 06:49:20;;;;;;;13.23;6.10;;;;;;;;;;5061999;28;20455;-63
2023/09/23 06:51:47;;;;;;;13.57;6.13;;;;;;;;;;5061416;28;20037;-63
2023/09/23 06:54:14;;;;;;;11.88;5.85;;;;;;;;;;5062262;28;20029;-66
2023/09/23 06:56:41;;;;;;;12.20;6.00;;;;;;;;;;5046289;28;20068;-61
2023/09/23 06:59:09;;;;;;;12.90;5.80;;;;;;;;;;5059792;28;20036;-61
2023/09/23 07:01:36;;;;;;;11.75;5.72;;;;;;;;;;5041209;28;20121;-60
2023/09/23 07:04:04;;;;;;;11.98;6.45;;;;;;;;;;5060617;28;20032;-60
2023/09/23 07:06:31;;;;;;;11.07;6.05;;;;;;;;;;5060053;28;20729;-61
2023/09/23 07:08:57;;;;;;;13.90;6.25;;;;;;;;;;5040483;28;20079;-65
2023/09/23 07:11:24;;;;;;;14.75;6.35;;;;;;;;;;5060492;28;20044;-62
2023/09/23 07:13:51;;;;;;;14.73;6.45;;;;;;;;;;5042419;28;20812;-62
2023/09/23 07:16:17;;;;;;;12.43;6.55;;;;;;;;;;5061435;28;20109;-63
2023/09/23 07:18:47;;;;;;;13.00;5.97;;;;;;;;;;5041153;28;20562;-61
2023/09/23 07:21:13;;;;;;;14.15;6.55;;;;;;;;;;5060989;28;20320;-62
2023/09/23 07:23:40;;;;;;;12.57;6.07;;;;;;;;;;5059039;28;20039;-60
2023/09/23 07:26:07;;;;;;;12.27;6.90;;;;;;;;;;5062073;28;20076;-59
2023/09/23 07:28:34;;;;;;;15.90;6.90;;;;;;;;;;5059532;28;20139;-60
2023/09/23 07:31:01;;;;;;;14.05;6.68;;;;;;;;;;5035299;28;20126;-60
2023/09/23 07:33:27;;;;;;;10.77;6.43;;;;;;;;;;5042513;28;20048;-61
2023/09/23 07:35:54;;;;;;;12.48;6.78;;;;;;;;;;5060992;28;20780;-60
2023/09/23 07:38:21;;;;;;;12.07;6.38;;;;;;;;;;5061723;28;20154;-62
2023/09/23 07:40:49;;;;;;;13.45;7.22;;;;;;;;;;5059215;28;20037;-63
2023/09/23 07:43:15;;;;;;;12.82;7.13;;;;;;;;;;5060070;28;20084;-61
2023/09/23 07:45:42;;;;;;;12.75;7.20;;;;;;;;;;5059397;28;20081;-63
2023/09/23 07:48:09;;;;;;;15.63;7.28;;;;;;;;;;5043597;28;20079;-60
2023/09/23 07:50:35;;;;;;;16.75;7.95;;;;;;;;;;5058812;28;20157;-62
2023/09/23 07:53:02;;;;;;;15.45;8.10;;;;;;;;;;5042925;28;20094;-60
2023/09/23 07:55:30;;;;;;;13.77;7.10;;;;;;;;;;5060129;28;20454;-60
2023/09/23 07:57:56;;;;;;;18.38;7.70;;;;;;;;;;5059960;28;20400;-60
2023/09/23 08:00:24;;;;;;;19.63;8.63;;;;;;;;;;5041896;28;20047;-62
2023/09/23 08:02:51;;;;;;;13.32;7.63;;;;;;;;;;5059441;28;20083;-62
2023/09/23 08:05:18;;;;;;;14.70;7.65;;;;;;;;;;5057350;28;20043;-60
2023/09/23 08:07:45;;;;;;;14.98;8.45;;;;;;;;;;5059349;28;20051;-62
2023/09/23 08:10:11;;;;;;;14.05;7.60;;;;;;;;;;5060053;28;20171;-62
2023/09/23 08:12:38;;;;;;;14.45;7.95;;;;;;;;;;5059034;28;20047;-62
2023/09/23 08:15:05;;;;;;;13.98;7.95;;;;;;;;;;5060916;28;20032;-65
2023/09/23 08:17:32;;;;;;;13.88;8.05;;;;;;;;;;5061493;28;20040;-60
2023/09/23 08:19:59;;;;;;;19.33;9.27;;;;;;;;;;5060873;28;20159;-60
2023/09/23 08:22:25;;;;;;;13.43;8.05;;;;;;;;;;5060776;28;20043;-60
2023/09/23 08:24:52;;;;;;;18.00;7.70;;;;;;;;;;5060095;28;20040;-60
2023/09/23 08:27:21;;;;;;;14.30;7.63;;;;;;;;;;5059906;28;20040;-60
2023/09/23 08:29:49;;;;;;;14.00;7.57;;;;;;;;;;5043998;28;20052;-59
2023/09/23 08:32:16;;;;;;;15.40;7.45;;;;;;;;;;5060874;28;20522;-62
2023/09/23 08:34:42;;;;;;;16.38;7.38;;;;;;;;;;5059481;28;20040;-59
2023/09/23 08:37:09;;;;;;;16.02;7.65;;;;;;;;;;5059612;28;20576;-60
2023/09/23 08:39:36;;;;;;;16.13;7.88;;;;;;;;;;5059476;28;20043;-60
2023/09/23 08:42:04;;;;;;;16.23;7.60;;;;;;;;;;5059688;28;20037;-59
2023/09/23 08:44:36;;;;;;;13.43;7.72;;;;;;;;;;5058389;28;20044;-60
2023/09/23 08:47:02;;;;;;;18.60;7.43;;;;;;;;;;5059937;28;20040;-59
2023/09/23 08:49:29;;;;;;;13.25;7.45;;;;;;;;;;5058385;28;20197;-59
2023/09/23 08:51:56;;;;;;;14.00;7.40;;;;;;;;;;5063529;28;20404;-59
2023/09/23 08:54:26;;;;;;;14.25;6.90;;;;;;;;;;5063251;28;20497;-66
2023/09/23 08:56:54;;;;;;;14.82;7.43;;;;;;;;;;5064657;28;21422;-60
2023/09/23 08:59:21;;;;;;;15.95;7.18;;;;;;;;;;5063615;28;20082;-59
2023/09/23 09:01:47;;;;;;;17.17;7.30;;;;;;;;;;5043865;28;20041;-59
2023/09/23 09:04:17;;;;;;;11.93;6.55;;;;;;;;;;5063776;28;20044;-62
2023/09/23 09:06:54;;;;;;;13.50;7.00;;;;;;;;;;5061765;28;20247;-61
2023/09/23 09:09:23;;;;;;;12.20;7.38;;;;;;;;;;5060943;28;20163;-61
2023/09/23 09:11:51;;;;;;;12.35;6.72;;;;;;;;;;5062986;28;20296;-61
2023/09/23 09:14:18;;;;;;;13.23;7.03;;;;;;;;;;5063269;28;20559;-62
2023/09/23 09:16:45;;;;;;;11.35;7.20;;;;;;;;;;5062256;28;20560;-61
2023/09/23 09:19:12;;;;;;;11.82;6.65;;;;;;;;;;5062526;28;20046;-60
2023/09/23 09:21:39;;;;;;;13.13;7.22;;;;;;;;;;5059698;28;20100;-60
2023/09/23 09:24:06;;;;;;;11.95;6.10;;;;;;;;;;5061370;28;20506;-62
2023/09/23 09:26:33;;;;;;;13.77;7.22;;;;;;;;;;5062474;28;20039;-59
2023/09/23 09:28:59;;;;;;;14.25;7.45;;;;;;;;;;5063202;28;20405;-60
2023/09/23 09:31:33;;;;;;;12.25;6.82;;;;;;;;;;5061244;28;20621;-59
2023/09/23 09:34:04;;;;;;;13.25;7.32;;;;;;;;;;5046303;28;20043;-60
2023/09/23 09:36:34;;;;;;;14.68;7.78;;;;;;;;;;5062110;28;20536;-61
2023/09/23 09:39:02;;;;;;;11.02;6.70;;;;;;;;;;5062686;28;20094;-60
2023/09/23 09:41:35;;;;;;;14.68;7.60;;;;;;;;;;5061016;28;20047;-61
2023/09/23 09:44:02;;;;;;;13.27;7.25;;;;;;;;;;5062061;28;20045;-60
2023/09/23 09:46:31;;;;;;;15.23;7.47;;;;;;;;;;5062621;28;20047;-61
2023/09/23 09:49:00;;;;;;;13.70;7.20;;;;;;;;;;5062138;28;20141;-60
2023/09/23 09:51:27;;;;;;;14.10;8.30;;;;;;;;;;5043147;28;20048;-60
2023/09/23 09:53:53;;;;;;;15.35;7.40;;;;;;;;;;5062150;28;20087;-63
2023/09/23 09:56:20;;;;;;;12.55;7.45;;;;;;;;;;5061345;28;20032;-59
2023/09/23 09:58:48;;;;;;;15.80;8.48;;;;;;;;;;5062724;28;21449;-60
2023/09/23 10:01:17;;;;;;;17.10;8.18;;;;;;;;;;5061791;28;20107;-60
2023/09/23 10:03:45;;;;;;;14.25;8.52;;;;;;;;;;5061364;28;20112;-59
2023/09/23 10:06:21;;;;;;;14.40;8.73;;;;;;;;;;5046819;28;20197;-59
2023/09/23 10:08:52;;;;;;;14.02;7.60;;;;;;;;;;5062166;28;20182;-62
2023/09/23 10:11:29;;;;;;;15.20;8.75;;;;;;;;;;5063155;28;20028;-60
2023/09/23 10:13:56;;;;;;;13.27;8.43;;;;;;;;;;5062122;28;20146;-61
2023/09/23 10:16:27;;;;;;;15.25;8.20;;;;;;;;;;5042511;28;20067;-66
2023/09/23 10:18:55;;;;;;;17.08;8.75;;;;;;;;;;5061902;28;20055;-63
2023/09/23 10:21:22;;;;;;;16.02;8.75;;;;;;;;;;5061074;28;20716;-64
2023/09/23 10:23:51;;;;;;;17.02;8.77;;;;;;;;;;5062939;28;20044;-63
2023/09/23 10:26:18;;;;;;;19.00;9.52;;;;;;;;;;5062133;28;20056;-63
2023/09/23 10:28:57;;;;;;;20.08;9.38;;;;;;;;;;5062207;28;20054;-61
2023/09/23 10:31:28;;;;;;;17.10;8.90;;;;;;;;;;5060547;28;20044;-61
2023/09/23 10:33:55;;;;;;;14.93;8.93;;;;;;;;;;5062621;28;20092;-63
2023/09/23 10:36:22;;;;;;;16.10;8.60;;;;;;;;;;5060182;28;20513;-63
2023/09/23 10:38:49;;;;;;;18.75;9.65;;;;;;;;;;5061925;28;20052;-64
2023/09/23 10:41:17;;;;;;;16.15;8.98;;;;;;;;;;5046852;28;20032;-62
2023/09/23 10:43:43;;;;;;;21.23;9.95;;;;;;;;;;5041833;28;20047;-60
2023/09/23 10:46:10;;;;;;;20.58;9.50;;;;;;;;;;5062337;28;20364;-60
2023/09/23 10:48:37;;;;;;;15.88;9.00;;;;;;;;;;5061400;28;20052;-60
2023/09/23 10:51:05;;;;;;;17.13;10.18;;;;;;;;;;5041535;28;20045;-61
2023/09/23 10:53:32;;;;;;;16.77;9.13;;;;;;;;;;5060596;28;20040;-63
2023/09/23 10:56:01;;;;;;;21.40;9.57;;;;;;;;;;5042327;28;20067;-61
2023/09/23 10:58:31;;;;;;;18.42;9.60;;;;;;;;;;5043062;28;20040;-61
2023/09/23 11:00:58;;;;;;;15.00;9.27;;;;;;;;;;5061173;28;20041;-61
2023/09/23 11:03:25;;;;;;;22.63;10.48;;;;;;;;;;5061043;28;20080;-63
2023/09/23 11:05:52;;;;;;;17.77;10.30;;;;;;;;;;5061635;28;20102;-63
2023/09/23 11:08:18;;;;;;;16.27;9.90;;;;;;;;;;5060109;28;20036;-62
2023/09/23 11:10:46;;;;;;;16.40;9.52;;;;;;;;;;5059808;28;20070;-62
2023/09/23 11:13:13;;;;;;;17.08;10.02;;;;;;;;;;5058973;28;20071;-62
2023/09/23 11:15:40;;;;;;;17.45;10.38;;;;;;;;;;5060431;28;20164;-62
2023/09/23 11:18:07;;;;;;;20.27;9.90;;;;;;;;;;5060645;28;20066;-60
2023/09/23 11:20:37;;;;;;;19.13;10.43;;;;;;;;;;5059457;28;20731;-62
2023/09/23 11:23:06;;;;;;;17.73;10.07;;;;;;;;;;5062905;28;20131;-63
2023/09/23 11:25:36;;;;;;;17.83;10.27;;;;;;;;;;5060820;28;20036;-62
2023/09/23 11:28:03;;;;;;;22.10;11.18;;;;;;;;;;5060613;28;20044;-60
2023/09/23 11:30:30;;;;;;;20.15;9.93;;;;;;;;;;5060313;28;20052;-62
2023/09/23 11:32:57;;;;;;;19.45;10.70;;;;;;;;;;5059953;28;20120;-61
2023/09/23 11:35:24;;;;;;;17.60;10.43;;;;;;;;;;5061129;28;20048;-59
2023/09/23 11:37:52;;;;;;;22.60;10.65;;;;;;;;;;5060306;28;20135;-59
2023/09/23 11:40:19;;;;;;;18.52;10.32;;;;;;;;;;5060945;28;20050;-65
2023/09/23 11:42:46;;;;;;;15.88;9.98;;;;;;;;;;5060100;28;20043;-60
2023/09/23 11:45:13;;;;;;;16.73;10.02;;;;;;;;;;5060807;28;20032;-61
2023/09/23 11:47:40;;;;;;;19.38;10.90;;;;;;;;;;5057372;28;20453;-63
2023/09/23 11:50:07;;;;;;;20.05;10.85;;;;;;;;;;5060178;28;20395;-62
2023/09/23 11:52:34;;;;;;;20.10;10.90;;;;;;;;;;5060045;28;20058;-61
2023/09/23 11:55:01;;;;;;;19.23;10.88;;;;;;;;;;5061253;28;20055;-61
2023/09/23 11:57:28;;;;;;;18.48;10.60;;;;;;;;;;5050094;28;20540;-64
2023/09/23 11:59:54;;;;;;;18.27;11.13;;;;;;;;;;5060897;28;20417;-63
2023/09/23 12:02:21;;;;;;;19.63;10.68;;;;;;;;;;5060120;28;20165;-61
2023/09/23 12:04:48;;;;;;;19.27;11.18;;;;;;;;;;5059474;28;20048;-63
2023/09/23 12:07:18;;;;;;;19.15;10.77;;;;;;;;;;5060622;28;20692;-62
2023/09/23 12:09:45;;;;;;;20.52;11.18;;;;;;;;;;5059322;28;20567;-60
2023/09/23 12:12:12;;;;;;;20.10;11.10;;;;;;;;;;5056238;28;20076;-62
2023/09/23 12:14:44;;;;;;;17.83;11.07;;;;;;;;;;5058958;28;20063;-60
2023/09/23 12:17:15;;;;;;;20.07;11.40;;;;;;;;;;5041517;28;20097;-60
2023/09/23 12:19:44;;;;;;;17.88;11.30;;;;;;;;;;5041423;28;20296;-62
2023/09/23 12:22:12;;;;;;;22.42;11.35;;;;;;;;;;5059881;28;20206;-61
2023/09/23 12:24:40;;;;;;;17.58;10.68;;;;;;;;;;5059752;28;20475;-64
2023/09/23 12:27:06;;;;;;;20.02;12.02;;;;;;;;;;5061178;28;20064;-63
2023/09/23 12:29:33;;;;;;;19.70;11.18;;;;;;;;;;5059607;28;20044;-61
2023/09/23 12:32:00;;;;;;;19.15;11.40;;;;;;;;;;5060748;28;20197;-64
2023/09/23 12:34:27;;;;;;;18.35;11.43;;;;;;;;;;5057723;28;20040;-61
2023/09/23 12:36:54;;;;;;;20.02;11.90;;;;;;;;;;5060214;28;20072;-62
2023/09/23 12:39:22;;;;;;;26.27;12.30;;;;;;;;;;5059702;28;20051;-63
2023/09/23 12:41:49;;;;;;;19.30;11.00;;;;;;;;;;5039690;28;20028;-65
2023/09/23 12:44:16;;;;;;;22.15;11.63;;;;;;;;;;5059578;28;20051;-63
2023/09/23 12:46:43;;;;;;;23.23;12.48;;;;;;;;;;5058865;28;20040;-61
2023/09/23 12:49:10;;;;;;;25.65;12.30;;;;;;;;;;5058669;28;20067;-63
2023/09/23 12:51:41;;;;;;;26.45;12.50;;;;;;;;;;5039270;28;20416;-60
2023/09/23 12:54:08;;;;;;;20.13;11.63;;;;;;;;;;5059515;28;20147;-58
2023/09/23 12:56:38;;;;;;;20.67;12.18;;;;;;;;;;5058324;28;20070;-61
2023/09/23 12:59:08;;;;;;;22.80;13.32;;;;;;;;;;5040969;28;20115;-62
2023/09/23 13:01:35;;;;;;;23.05;13.00;;;;;;;;;;5057996;28;20044;-59
2023/09/23 13:04:02;;;;;;;22.95;13.18;;;;;;;;;;5059189;28;20047;-60
2023/09/23 13:06:29;;;;;;;25.30;13.23;;;;;;;;;;5059460;28;20098;-60
2023/09/23 13:09:15;;;;;;;21.40;12.82;;;;;;;;;;5039486;28;20049;-61
2023/09/23 13:11:43;;;;;;;27.25;14.35;;;;;;;;;;5040467;28;20045;-63
2023/09/23 13:14:11;;;;;;;28.40;14.90;;;;;;;;;;5039835;28;20677;-65
2023/09/23 13:16:37;;;;;;;24.20;14.02;;;;;;;;;;5026042;28;21634;-61
2023/09/23 13:19:04;;;;;;;28.77;14.63;;;;;;;;;;5041490;28;20059;-60
2023/09/23 13:21:30;;;;;;;25.67;14.77;;;;;;;;;;5036804;28;20037;-60
2023/09/23 13:23:57;;;;;;;26.15;15.00;;;;;;;;;;5040255;28;20040;-60
2023/09/23 13:26:24;;;;;;;26.17;14.75;;;;;;;;;;5040892;28;20057;-60
2023/09/23 13:28:51;;;;;;;30.73;14.88;;;;;;;;;;5042108;28;20414;-62
2023/09/23 13:31:17;;;;;;;24.65;14.43;;;;;;;;;;5040933;28;20103;-61
2023/09/23 13:33:44;;;;;;;30.70;15.30;;;;;;;;;;5041084;28;20080;-61
2023/09/23 13:36:30;;;;;;;25.42;14.15;;;;;;;;;;5020805;28;20054;-60
2023/09/23 13:38:57;;;;;;;32.60;15.32;;;;;;;;;;5022876;28;20044;-61
2023/09/23 13:41:24;;;;;;;33.38;14.50;;;;;;;;;;5018317;28;20049;-62
2023/09/23 13:43:50;;;;;;;41.92;14.10;;;;;;;;;;5016951;28;20053;-58
2023/09/23 13:46:17;;;;;;;35.58;13.32;;;;;;;;;;5018842;28;20107;-62
2023/09/23 13:48:43;;;;;;;28.52;12.60;;;;;;;;;;5017007;28;20163;-60
2023/09/23 13:51:10;;;;;;;29.33;12.85;;;;;;;;;;5017945;28;20042;-60
2023/09/23 13:53:37;;;;;;;26.83;12.35;;;;;;;;;;5018049;28;20041;-64
2023/09/23 13:56:03;;;;;;;29.52;12.45;;;;;;;;;;5008429;28;20045;-62
2023/09/23 13:58:30;;;;;;;24.35;12.05;;;;;;;;;;5000808;28;20598;-60
2023/09/23 14:00:57;;;;;;;28.77;11.52;;;;;;;;;;5017267;28;20032;-61
2023/09/23 14:03:24;;;;;;;23.30;11.00;;;;;;;;;;5016883;28;20045;-58
2023/09/23 14:05:50;;;;;;;30.50;10.85;;;;;;;;;;5018120;28;20576;-63
2023/09/23 14:08:17;;;;;;;17.98;10.18;;;;;;;;;;5018089;28;20465;-64
2023/09/23 14:10:43;;;;;;;20.13;10.35;;;;;;;;;;5017497;28;20073;-62
2023/09/23 14:13:10;;;;;;;18.48;11.15;;;;;;;;;;5005119;28;20040;-62
2023/09/23 14:15:37;;;;;;;29.25;10.50;;;;;;;;;;5039202;28;20033;-64
2023/09/23 14:18:03;;;;;;;23.27;10.48;;;;;;;;;;5040394;28;20564;-64
2023/09/23 14:20:30;;;;;;;21.35;9.32;;;;;;;;;;5041980;28;20036;-64
2023/09/23 14:22:56;;;;;;;25.65;10.40;;;;;;;;;;5042330;28;20033;-63
2023/09/23 14:25:23;;;;;;;19.40;10.48;;;;;;;;;;5040780;28;20193;-68
2023/09/23 14:27:50;;;;;;;22.20;9.50;;;;;;;;;;5042208;28;20049;-62
2023/09/23 14:30:18;;;;;;;20.00;8.60;;;;;;;;;;5040998;28;20104;-64
2023/09/23 14:32:44;;;;;;;15.95;8.65;;;;;;;;;;5039637;28;20043;-64